sensor_id;sensor_type;location;lat;lon;timestamp;P1;durP1;ratioP1;P2;durP2;ratioP2
13202;SDS011;6666;51.626;7.530;2023-05-07T00:02:16;14.88;;;9.63;;
13202;SDS011;6666;51.626;7.530;2023-05-07T00:04:46;15.85;;;9.80;;
13202;SDS011;6666;51.626;7.530;2023-05-07T00:07:14;11.75;;;8.40;;
13202;SDS011;6666;51.626;7.530;2023-05-07T00:09:43;13.55;;;8.90;;
13202;SDS011;6666;51.626;7.530;2023-05-07T00:12:11;9.73;;;7.95;;
13202;SDS011;6666;51.626;7.530;2023-05-07T00:14:39;10.30;;;7.10;;
13202;SDS011;6666;51.626;7.530;2023-05-07T00:17:08;10.68;;;8.05;;
13202;SDS011;6666;51.626;7.530;2023-05-07T00:19:36;10.68;;;7.68;;
13202;SDS011;6666;51.626;7.530;2023-05-07T00:22:06;10.02;;;7.07;;
13202;SDS011;6666;51.626;7.530;2023-05-07T00:24:35;9.93;;;7.40;;
13202;SDS011;6666;51.626;7.530;2023-05-07T00:27:03;8.90;;;6.80;;
13202;SDS011;6666;51.626;7.530;2023-05-07T00:29:31;10.20;;;6.88;;
13202;SDS011;6666;51.626;7.530;2023-05-07T00:32:00;9.50;;;6.93;;
13202;SDS011;6666;51.626;7.530;2023-05-07T00:34:28;8.25;;;6.78;;
13202;SDS011;6666;51.626;7.530;2023-05-07T00:36:56;9.75;;;6.30;;
13202;SDS011;6666;51.626;7.530;2023-05-07T00:39:25;7.82;;;6.45;;
13202;SDS011;6666;51.626;7.530;2023-05-07T00:41:53;9.77;;;6.97;;
13202;SDS011;6666;51.626;7.530;2023-05-07T00:44:21;8.90;;;6.33;;
13202;SDS011;6666;51.626;7.530;2023-05-07T00:46:50;11.32;;;6.13;;
13202;SDS011;6666;51.626;7.530;2023-05-07T00:49:18;10.23;;;6.60;;
13202;SDS011;6666;51.626;7.530;2023-05-07T00:51:47;12.33;;;6.10;;
13202;SDS011;6666;51.626;7.530;2023-05-07T00:54:15;7.93;;;6.40;;
13202;SDS011;6666;51.626;7.530;2023-05-07T00:56:45;9.57;;;6.35;;
13202;SDS011;6666;51.626;7.530;2023-05-07T00:59:13;7.65;;;6.28;;
13202;SDS011;6666;51.626;7.530;2023-05-07T01:01:42;9.30;;;6.47;;
13202;SDS011;6666;51.626;7.530;2023-05-07T01:04:10;8.73;;;6.13;;
13202;SDS011;6666;51.626;7.530;2023-05-07T01:06:39;8.75;;;5.95;;
13202;SDS011;6666;51.626;7.530;2023-05-07T01:09:08;8.43;;;5.80;;
13202;SDS011;6666;51.626;7.530;2023-05-07T01:11:37;8.23;;;5.57;;
13202;SDS011;6666;51.626;7.530;2023-05-07T01:14:07;7.97;;;5.93;;
13202;SDS011;6666;51.626;7.530;2023-05-07T01:16:36;11.27;;;6.70;;
13202;SDS011;6666;51.626;7.530;2023-05-07T01:19:05;8.40;;;6.00;;
13202;SDS011;6666;51.626;7.530;2023-05-07T01:21:34;8.95;;;6.20;;
13202;SDS011;6666;51.626;7.530;2023-05-07T01:24:08;10.55;;;5.80;;
13202;SDS011;6666;51.626;7.530;2023-05-07T01:26:38;7.95;;;5.88;;
13202;SDS011;6666;51.626;7.530;2023-05-07T01:29:06;11.80;;;5.90;;
13202;SDS011;6666;51.626;7.530;2023-05-07T01:31:34;9.38;;;6.50;;
13202;SDS011;6666;51.626;7.530;2023-05-07T01:34:04;10.13;;;6.07;;
13202;SDS011;6666;51.626;7.530;2023-05-07T01:36:34;8.63;;;6.38;;
13202;SDS011;6666;51.626;7.530;2023-05-07T01:39:06;8.50;;;6.82;;
13202;SDS011;6666;51.626;7.530;2023-05-07T01:41:36;10.60;;;6.75;;
13202;SDS011;6666;51.626;7.530;2023-05-07T01:44:04;10.48;;;7.65;;
13202;SDS011;6666;51.626;7.530;2023-05-07T01:46:33;10.50;;;8.10;;
13202;SDS011;6666;51.626;7.530;2023-05-07T01:49:02;13.43;;;7.90;;
13202;SDS011;6666;51.626;7.530;2023-05-07T01:51:31;11.60;;;7.85;;
13202;SDS011;6666;51.626;7.530;2023-05-07T01:54:00;13.32;;;8.05;;
13202;SDS011;6666;51.626;7.530;2023-05-07T01:56:30;10.95;;;8.27;;
13202;SDS011;6666;51.626;7.530;2023-05-07T01:58:58;9.43;;;7.70;;
13202;SDS011;6666;51.626;7.530;2023-05-07T02:01:27;13.20;;;8.65;;
13202;SDS011;6666;51.626;7.530;2023-05-07T02:03:56;13.68;;;8.40;;
13202;SDS011;6666;51.626;7.530;2023-05-07T02:06:27;12.33;;;8.33;;
13202;SDS011;6666;51.626;7.530;2023-05-07T02:09:00;11.30;;;8.50;;
13202;SDS011;6666;51.626;7.530;2023-05-07T02:11:30;11.10;;;8.20;;
13202;SDS011;6666;51.626;7.530;2023-05-07T02:13:58;14.05;;;8.40;;
13202;SDS011;6666;51.626;7.530;2023-05-07T02:16:27;12.02;;;8.20;;
13202;SDS011;6666;51.626;7.530;2023-05-07T02:18:55;10.57;;;8.43;;
13202;SDS011;6666;51.626;7.530;2023-05-07T02:21:24;11.05;;;8.20;;
13202;SDS011;6666;51.626;7.530;2023-05-07T02:23:56;9.23;;;7.85;;
13202;SDS011;6666;51.626;7.530;2023-05-07T02:26:24;11.30;;;8.30;;
13202;SDS011;6666;51.626;7.530;2023-05-07T02:28:54;9.48;;;7.45;;
13202;SDS011;6666;51.626;7.530;2023-05-07T02:31:22;9.95;;;7.60;;
13202;SDS011;6666;51.626;7.530;2023-05-07T02:33:50;11.35;;;7.43;;
13202;SDS011;6666;51.626;7.530;2023-05-07T02:36:19;12.15;;;8.02;;
13202;SDS011;6666;51.626;7.530;2023-05-07T02:38:53;12.03;;;8.63;;
13202;SDS011;6666;51.626;7.530;2023-05-07T02:41:21;12.70;;;8.27;;
13202;SDS011;6666;51.626;7.530;2023-05-07T02:43:50;12.32;;;8.60;;
13202;SDS011;6666;51.626;7.530;2023-05-07T02:46:19;11.07;;;7.90;;
13202;SDS011;6666;51.626;7.530;2023-05-07T02:48:56;15.82;;;8.27;;
13202;SDS011;6666;51.626;7.530;2023-05-07T02:51:25;11.23;;;7.90;;
13202;SDS011;6666;51.626;7.530;2023-05-07T02:53:56;11.83;;;8.00;;
13202;SDS011;6666;51.626;7.530;2023-05-07T02:56:25;9.93;;;7.95;;
13202;SDS011;6666;51.626;7.530;2023-05-07T02:58:54;12.33;;;8.30;;
13202;SDS011;6666;51.626;7.530;2023-05-07T03:01:26;12.02;;;7.95;;
13202;SDS011;6666;51.626;7.530;2023-05-07T03:04:00;9.40;;;6.90;;
13202;SDS011;6666;51.626;7.530;2023-05-07T03:06:28;9.40;;;7.05;;
13202;SDS011;6666;51.626;7.530;2023-05-07T03:08:56;8.07;;;6.50;;
13202;SDS011;6666;51.626;7.530;2023-05-07T03:11:25;9.95;;;6.68;;
13202;SDS011;6666;51.626;7.530;2023-05-07T03:13:53;9.27;;;6.63;;
13202;SDS011;6666;51.626;7.530;2023-05-07T03:16:21;9.10;;;6.00;;
13202;SDS011;6666;51.626;7.530;2023-05-07T03:18:51;7.70;;;6.30;;
13202;SDS011;6666;51.626;7.530;2023-05-07T03:21:20;8.52;;;6.30;;
13202;SDS011;6666;51.626;7.530;2023-05-07T03:23:48;8.60;;;6.20;;
13202;SDS011;6666;51.626;7.530;2023-05-07T03:26:16;7.53;;;5.80;;
13202;SDS011;6666;51.626;7.530;2023-05-07T03:28:45;6.53;;;5.70;;
13202;SDS011;6666;51.626;7.530;2023-05-07T03:31:15;7.40;;;6.10;;
13202;SDS011;6666;51.626;7.530;2023-05-07T03:33:52;8.40;;;6.00;;
13202;SDS011;6666;51.626;7.530;2023-05-07T03:36:21;7.57;;;6.00;;
13202;SDS011;6666;51.626;7.530;2023-05-07T03:38:50;7.45;;;5.85;;
13202;SDS011;6666;51.626;7.530;2023-05-07T03:41:22;7.30;;;5.80;;
13202;SDS011;6666;51.626;7.530;2023-05-07T03:43:50;8.43;;;6.25;;
13202;SDS011;6666;51.626;7.530;2023-05-07T03:46:18;11.25;;;6.70;;
13202;SDS011;6666;51.626;7.530;2023-05-07T03:48:47;11.50;;;6.40;;
13202;SDS011;6666;51.626;7.530;2023-05-07T03:51:17;8.63;;;7.00;;
13202;SDS011;6666;51.626;7.530;2023-05-07T03:53:45;7.47;;;6.07;;
13202;SDS011;6666;51.626;7.530;2023-05-07T03:56:14;7.13;;;6.00;;
13202;SDS011;6666;51.626;7.530;2023-05-07T03:58:45;7.70;;;6.00;;
13202;SDS011;6666;51.626;7.530;2023-05-07T04:01:13;7.40;;;5.90;;
13202;SDS011;6666;51.626;7.530;2023-05-07T04:03:41;7.35;;;6.25;;
13202;SDS011;6666;51.626;7.530;2023-05-07T04:06:10;8.60;;;6.30;;
13202;SDS011;6666;51.626;7.530;2023-05-07T04:08:43;9.82;;;5.90;;
13202;SDS011;6666;51.626;7.530;2023-05-07T04:11:12;10.10;;;5.97;;
13202;SDS011;6666;51.626;7.530;2023-05-07T04:13:40;9.30;;;5.90;;
13202;SDS011;6666;51.626;7.530;2023-05-07T04:16:09;10.45;;;6.88;;
13202;SDS011;6666;51.626;7.530;2023-05-07T04:18:37;8.23;;;6.15;;
13202;SDS011;6666;51.626;7.530;2023-05-07T04:21:05;6.82;;;5.70;;
13202;SDS011;6666;51.626;7.530;2023-05-07T04:23:40;7.63;;;5.90;;
13202;SDS011;6666;51.626;7.530;2023-05-07T04:26:12;8.45;;;6.57;;
13202;SDS011;6666;51.626;7.530;2023-05-07T04:28:42;9.00;;;6.37;;
13202;SDS011;6666;51.626;7.530;2023-05-07T04:31:11;7.82;;;6.35;;
13202;SDS011;6666;51.626;7.530;2023-05-07T04:33:40;10.15;;;6.60;;
13202;SDS011;6666;51.626;7.530;2023-05-07T04:36:11;8.07;;;6.43;;
13202;SDS011;6666;51.626;7.530;2023-05-07T04:38:48;8.73;;;6.87;;
13202;SDS011;6666;51.626;7.530;2023-05-07T04:41:19;10.40;;;6.70;;
13202;SDS011;6666;51.626;7.530;2023-05-07T04:43:48;10.65;;;7.05;;
13202;SDS011;6666;51.626;7.530;2023-05-07T04:46:20;8.90;;;6.40;;
13202;SDS011;6666;51.626;7.530;2023-05-07T04:48:48;10.40;;;7.30;;
13202;SDS011;6666;51.626;7.530;2023-05-07T04:51:17;10.80;;;6.90;;
13202;SDS011;6666;51.626;7.530;2023-05-07T04:53:45;11.38;;;6.60;;
13202;SDS011;6666;51.626;7.530;2023-05-07T04:56:13;11.63;;;7.38;;
13202;SDS011;6666;51.626;7.530;2023-05-07T04:58:45;11.25;;;7.25;;
13202;SDS011;6666;51.626;7.530;2023-05-07T05:01:15;12.02;;;7.32;;
13202;SDS011;6666;51.626;7.530;2023-05-07T05:03:43;8.27;;;7.35;;
13202;SDS011;6666;51.626;7.530;2023-05-07T05:06:11;11.03;;;7.13;;
13202;SDS011;6666;51.626;7.530;2023-05-07T05:08:39;9.75;;;6.32;;
13202;SDS011;6666;51.626;7.530;2023-05-07T05:11:09;8.23;;;6.78;;
13202;SDS011;6666;51.626;7.530;2023-05-07T05:13:37;8.43;;;6.50;;
13202;SDS011;6666;51.626;7.530;2023-05-07T05:16:12;9.15;;;6.57;;
13202;SDS011;6666;51.626;7.530;2023-05-07T05:18:41;11.77;;;7.10;;
13202;SDS011;6666;51.626;7.530;2023-05-07T05:21:11;8.90;;;6.15;;
13202;SDS011;6666;51.626;7.530;2023-05-07T05:23:41;8.65;;;5.97;;
13202;SDS011;6666;51.626;7.530;2023-05-07T05:26:10;9.15;;;6.10;;
13202;SDS011;6666;51.626;7.530;2023-05-07T05:28:38;10.70;;;7.23;;
13202;SDS011;6666;51.626;7.530;2023-05-07T05:31:07;4.90;;;4.40;;
13202;SDS011;6666;51.626;7.530;2023-05-07T05:33:37;9.25;;;5.57;;
13202;SDS011;6666;51.626;7.530;2023-05-07T05:36:06;6.40;;;5.00;;
13202;SDS011;6666;51.626;7.530;2023-05-07T05:38:37;10.00;;;6.00;;
13202;SDS011;6666;51.626;7.530;2023-05-07T05:41:07;7.45;;;6.00;;
13202;SDS011;6666;51.626;7.530;2023-05-07T05:43:35;7.25;;;5.60;;
13202;SDS011;6666;51.626;7.530;2023-05-07T05:46:03;9.30;;;5.90;;
13202;SDS011;6666;51.626;7.530;2023-05-07T05:48:33;6.20;;;5.23;;
13202;SDS011;6666;51.626;7.530;2023-05-07T05:51:04;9.40;;;5.53;;
13202;SDS011;6666;51.626;7.530;2023-05-07T05:53:32;8.98;;;6.35;;
13202;SDS011;6666;51.626;7.530;2023-05-07T05:56:02;12.60;;;6.20;;
13202;SDS011;6666;51.626;7.530;2023-05-07T05:58:31;7.40;;;6.15;;
13202;SDS011;6666;51.626;7.530;2023-05-07T06:01:03;10.82;;;6.97;;
13202;SDS011;6666;51.626;7.530;2023-05-07T06:03:33;11.25;;;7.07;;
13202;SDS011;6666;51.626;7.530;2023-05-07T06:06:07;11.20;;;7.40;;
13202;SDS011;6666;51.626;7.530;2023-05-07T06:08:35;13.60;;;7.60;;
13202;SDS011;6666;51.626;7.530;2023-05-07T06:11:03;11.70;;;7.40;;
13202;SDS011;6666;51.626;7.530;2023-05-07T06:13:35;11.05;;;7.10;;
13202;SDS011;6666;51.626;7.530;2023-05-07T06:16:03;11.65;;;7.25;;
13202;SDS011;6666;51.626;7.530;2023-05-07T06:18:34;10.20;;;7.25;;
13202;SDS011;6666;51.626;7.530;2023-05-07T06:21:02;10.70;;;7.40;;
13202;SDS011;6666;51.626;7.530;2023-05-07T06:23:34;11.10;;;8.35;;
13202;SDS011;6666;51.626;7.530;2023-05-07T06:26:04;14.02;;;10.15;;
13202;SDS011;6666;51.626;7.530;2023-05-07T06:28:37;12.05;;;8.65;;
13202;SDS011;6666;51.626;7.530;2023-05-07T06:31:12;11.73;;;9.07;;
13202;SDS011;6666;51.626;7.530;2023-05-07T06:33:46;13.23;;;9.45;;
13202;SDS011;6666;51.626;7.530;2023-05-07T06:36:14;14.32;;;9.43;;
13202;SDS011;6666;51.626;7.530;2023-05-07T06:38:45;14.70;;;9.18;;
13202;SDS011;6666;51.626;7.530;2023-05-07T06:41:14;14.47;;;10.67;;
13202;SDS011;6666;51.626;7.530;2023-05-07T06:43:43;13.55;;;9.77;;
13202;SDS011;6666;51.626;7.530;2023-05-07T06:46:24;15.38;;;10.60;;
13202;SDS011;6666;51.626;7.530;2023-05-07T06:48:52;14.02;;;10.10;;
13202;SDS011;6666;51.626;7.530;2023-05-07T06:51:20;14.88;;;9.85;;
13202;SDS011;6666;51.626;7.530;2023-05-07T06:53:50;13.38;;;9.77;;
13202;SDS011;6666;51.626;7.530;2023-05-07T06:56:18;16.08;;;10.43;;
13202;SDS011;6666;51.626;7.530;2023-05-07T06:58:47;14.07;;;10.27;;
13202;SDS011;6666;51.626;7.530;2023-05-07T07:01:16;16.67;;;11.00;;
13202;SDS011;6666;51.626;7.530;2023-05-07T07:03:44;15.63;;;9.50;;
13202;SDS011;6666;51.626;7.530;2023-05-07T07:06:13;16.45;;;10.32;;
13202;SDS011;6666;51.626;7.530;2023-05-07T07:08:41;12.93;;;9.77;;
13202;SDS011;6666;51.626;7.530;2023-05-07T07:11:14;13.77;;;10.07;;
13202;SDS011;6666;51.626;7.530;2023-05-07T07:13:43;13.80;;;9.80;;
13202;SDS011;6666;51.626;7.530;2023-05-07T07:16:11;13.80;;;9.97;;
13202;SDS011;6666;51.626;7.530;2023-05-07T07:18:39;14.18;;;9.15;;
13202;SDS011;6666;51.626;7.530;2023-05-07T07:21:07;13.05;;;9.45;;
13202;SDS011;6666;51.626;7.530;2023-05-07T07:23:36;14.45;;;9.80;;
13202;SDS011;6666;51.626;7.530;2023-05-07T07:26:04;13.80;;;10.20;;
13202;SDS011;6666;51.626;7.530;2023-05-07T07:28:36;15.90;;;10.70;;
13202;SDS011;6666;51.626;7.530;2023-05-07T07:31:13;17.98;;;11.40;;
13202;SDS011;6666;51.626;7.530;2023-05-07T07:33:41;12.38;;;9.63;;
13202;SDS011;6666;51.626;7.530;2023-05-07T07:36:09;17.25;;;11.32;;
13202;SDS011;6666;51.626;7.530;2023-05-07T07:38:38;16.45;;;10.48;;
13202;SDS011;6666;51.626;7.530;2023-05-07T07:41:07;15.40;;;10.45;;
13202;SDS011;6666;51.626;7.530;2023-05-07T07:43:37;14.38;;;9.60;;
13202;SDS011;6666;51.626;7.530;2023-05-07T07:46:05;13.68;;;9.98;;
13202;SDS011;6666;51.626;7.530;2023-05-07T07:48:34;13.73;;;9.30;;
13202;SDS011;6666;51.626;7.530;2023-05-07T07:51:03;15.82;;;11.10;;
13202;SDS011;6666;51.626;7.530;2023-05-07T07:53:32;14.10;;;9.77;;
13202;SDS011;6666;51.626;7.530;2023-05-07T07:56:00;15.13;;;10.90;;
13202;SDS011;6666;51.626;7.530;2023-05-07T07:58:32;15.05;;;10.07;;
13202;SDS011;6666;51.626;7.530;2023-05-07T08:01:03;17.40;;;9.70;;
13202;SDS011;6666;51.626;7.530;2023-05-07T08:03:32;14.52;;;10.48;;
13202;SDS011;6666;51.626;7.530;2023-05-07T08:06:01;14.10;;;10.27;;
13202;SDS011;6666;51.626;7.530;2023-05-07T08:08:31;18.60;;;13.00;;
13202;SDS011;6666;51.626;7.530;2023-05-07T08:10:59;20.70;;;13.05;;
13202;SDS011;6666;51.626;7.530;2023-05-07T08:13:31;16.58;;;11.13;;
13202;SDS011;6666;51.626;7.530;2023-05-07T08:15:59;17.75;;;10.80;;
13202;SDS011;6666;51.626;7.530;2023-05-07T08:18:29;17.95;;;10.68;;
13202;SDS011;6666;51.626;7.530;2023-05-07T08:21:00;14.13;;;10.13;;
13202;SDS011;6666;51.626;7.530;2023-05-07T08:23:30;19.70;;;10.60;;
13202;SDS011;6666;51.626;7.530;2023-05-07T08:25:59;15.17;;;10.63;;
13202;SDS011;6666;51.626;7.530;2023-05-07T08:28:28;12.68;;;9.85;;
13202;SDS011;6666;51.626;7.530;2023-05-07T08:30:56;18.05;;;11.30;;
13202;SDS011;6666;51.626;7.530;2023-05-07T08:33:31;16.88;;;9.65;;
13202;SDS011;6666;51.626;7.530;2023-05-07T08:35:59;15.98;;;10.32;;
13202;SDS011;6666;51.626;7.530;2023-05-07T08:38:28;17.50;;;10.43;;
13202;SDS011;6666;51.626;7.530;2023-05-07T08:40:56;13.10;;;10.00;;
13202;SDS011;6666;51.626;7.530;2023-05-07T08:43:26;14.55;;;9.73;;
13202;SDS011;6666;51.626;7.530;2023-05-07T08:45:55;14.23;;;9.60;;
13202;SDS011;6666;51.626;7.530;2023-05-07T08:48:27;12.32;;;9.30;;
13202;SDS011;6666;51.626;7.530;2023-05-07T08:51:06;13.23;;;9.17;;
13202;SDS011;6666;51.626;7.530;2023-05-07T08:53:36;12.15;;;8.90;;
13202;SDS011;6666;51.626;7.530;2023-05-07T08:56:10;13.77;;;9.55;;
13202;SDS011;6666;51.626;7.530;2023-05-07T08:58:40;12.70;;;9.73;;
13202;SDS011;6666;51.626;7.530;2023-05-07T09:01:09;13.90;;;8.80;;
13202;SDS011;6666;51.626;7.530;2023-05-07T09:03:41;13.10;;;10.00;;
13202;SDS011;6666;51.626;7.530;2023-05-07T09:06:15;15.85;;;9.25;;
13202;SDS011;6666;51.626;7.530;2023-05-07T09:08:45;12.10;;;8.70;;
13202;SDS011;6666;51.626;7.530;2023-05-07T09:11:21;13.90;;;9.43;;
13202;SDS011;6666;51.626;7.530;2023-05-07T09:13:53;11.20;;;8.38;;
13202;SDS011;6666;51.626;7.530;2023-05-07T09:16:23;12.25;;;8.40;;
13202;SDS011;6666;51.626;7.530;2023-05-07T09:18:53;11.93;;;9.38;;
13202;SDS011;6666;51.626;7.530;2023-05-07T09:21:23;16.33;;;11.70;;
13202;SDS011;6666;51.626;7.530;2023-05-07T09:23:54;17.57;;;10.03;;
13202;SDS011;6666;51.626;7.530;2023-05-07T09:26:30;12.05;;;8.73;;
13202;SDS011;6666;51.626;7.530;2023-05-07T09:29:01;10.98;;;7.88;;
13202;SDS011;6666;51.626;7.530;2023-05-07T09:31:30;13.90;;;8.60;;
13202;SDS011;6666;51.626;7.530;2023-05-07T09:33:58;12.00;;;8.00;;
13202;SDS011;6666;51.626;7.530;2023-05-07T09:36:31;11.65;;;8.20;;
13202;SDS011;6666;51.626;7.530;2023-05-07T09:38:59;12.90;;;8.68;;
13202;SDS011;6666;51.626;7.530;2023-05-07T09:41:30;12.52;;;8.60;;
13202;SDS011;6666;51.626;7.530;2023-05-07T09:44:12;11.80;;;8.30;;
13202;SDS011;6666;51.626;7.530;2023-05-07T09:46:46;12.73;;;8.02;;
13202;SDS011;6666;51.626;7.530;2023-05-07T09:49:28;11.40;;;8.52;;
13202;SDS011;6666;51.626;7.530;2023-05-07T09:52:04;10.68;;;7.50;;
13202;SDS011;6666;51.626;7.530;2023-05-07T09:54:37;12.95;;;8.60;;
13202;SDS011;6666;51.626;7.530;2023-05-07T09:57:07;10.88;;;8.00;;
13202;SDS011;6666;51.626;7.530;2023-05-07T09:59:38;11.63;;;7.80;;
13202;SDS011;6666;51.626;7.530;2023-05-07T10:02:12;13.05;;;8.60;;
13202;SDS011;6666;51.626;7.530;2023-05-07T10:04:46;13.90;;;8.02;;
13202;SDS011;6666;51.626;7.530;2023-05-07T10:07:22;12.45;;;8.45;;
13202;SDS011;6666;51.626;7.530;2023-05-07T10:09:55;10.43;;;7.35;;
13202;SDS011;6666;51.626;7.530;2023-05-07T10:12:30;13.10;;;8.00;;
13202;SDS011;6666;51.626;7.530;2023-05-07T10:15:09;11.90;;;7.32;;
13202;SDS011;6666;51.626;7.530;2023-05-07T10:17:41;12.48;;;8.90;;
13202;SDS011;6666;51.626;7.530;2023-05-07T10:20:11;10.68;;;7.50;;
13202;SDS011;6666;51.626;7.530;2023-05-07T10:22:43;12.05;;;8.75;;
13202;SDS011;6666;51.626;7.530;2023-05-07T10:25:21;14.88;;;9.73;;
13202;SDS011;6666;51.626;7.530;2023-05-07T10:28:04;13.90;;;7.72;;
13202;SDS011;6666;51.626;7.530;2023-05-07T10:30:39;10.13;;;7.50;;
13202;SDS011;6666;51.626;7.530;2023-05-07T10:33:17;16.17;;;9.10;;
13202;SDS011;6666;51.626;7.530;2023-05-07T10:35:50;11.70;;;8.48;;
13202;SDS011;6666;51.626;7.530;2023-05-07T10:38:20;13.90;;;9.48;;
13202;SDS011;6666;51.626;7.530;2023-05-07T10:40:48;12.15;;;8.40;;
13202;SDS011;6666;51.626;7.530;2023-05-07T10:43:18;11.75;;;7.80;;
13202;SDS011;6666;51.626;7.530;2023-05-07T10:46:15;13.00;;;8.88;;
13202;SDS011;6666;51.626;7.530;2023-05-07T10:49:09;12.65;;;8.50;;
13202;SDS011;6666;51.626;7.530;2023-05-07T10:55:22;16.33;;;8.40;;
13202;SDS011;6666;51.626;7.530;2023-05-07T10:58:24;14.60;;;9.43;;
13202;SDS011;6666;51.626;7.530;2023-05-07T11:01:10;11.05;;;8.10;;
13202;SDS011;6666;51.626;7.530;2023-05-07T11:10:01;11.27;;;8.00;;
13202;SDS011;6666;51.626;7.530;2023-05-07T11:12:54;11.75;;;7.90;;
13202;SDS011;6666;51.626;7.530;2023-05-07T11:15:35;11.70;;;8.07;;
13202;SDS011;6666;51.626;7.530;2023-05-07T11:18:19;12.32;;;8.07;;
13202;SDS011;6666;51.626;7.530;2023-05-07T11:20:51;9.13;;;6.80;;
13202;SDS011;6666;51.626;7.530;2023-05-07T11:23:56;11.38;;;7.38;;
13202;SDS011;6666;51.626;7.530;2023-05-07T11:26:44;14.65;;;7.38;;
13202;SDS011;6666;51.626;7.530;2023-05-07T11:29:16;11.63;;;7.72;;
13202;SDS011;6666;51.626;7.530;2023-05-07T11:31:52;11.88;;;7.93;;
13202;SDS011;6666;51.626;7.530;2023-05-07T11:34:25;10.40;;;7.20;;
13202;SDS011;6666;51.626;7.530;2023-05-07T11:36:56;11.20;;;7.60;;
13202;SDS011;6666;51.626;7.530;2023-05-07T11:39:42;10.85;;;6.18;;
13202;SDS011;6666;51.626;7.530;2023-05-07T11:42:24;10.55;;;7.22;;
13202;SDS011;6666;51.626;7.530;2023-05-07T11:44:54;9.57;;;6.50;;
13202;SDS011;6666;51.626;7.530;2023-05-07T11:47:22;9.98;;;6.70;;
13202;SDS011;6666;51.626;7.530;2023-05-07T11:49:52;8.07;;;6.20;;
13202;SDS011;6666;51.626;7.530;2023-05-07T11:52:21;8.30;;;6.13;;
13202;SDS011;6666;51.626;7.530;2023-05-07T11:54:51;8.20;;;6.20;;
13202;SDS011;6666;51.626;7.530;2023-05-07T11:57:20;10.48;;;6.40;;
13202;SDS011;6666;51.626;7.530;2023-05-07T11:59:52;9.27;;;5.67;;
13202;SDS011;6666;51.626;7.530;2023-05-07T12:02:22;8.27;;;5.43;;
13202;SDS011;6666;51.626;7.530;2023-05-07T12:04:51;7.43;;;5.10;;
13202;SDS011;6666;51.626;7.530;2023-05-07T12:07:20;10.75;;;5.88;;
13202;SDS011;6666;51.626;7.530;2023-05-07T12:09:48;9.05;;;6.35;;
13202;SDS011;6666;51.626;7.530;2023-05-07T12:12:16;8.63;;;5.95;;
13202;SDS011;6666;51.626;7.530;2023-05-07T12:14:45;10.70;;;6.20;;
13202;SDS011;6666;51.626;7.530;2023-05-07T12:17:14;10.52;;;5.50;;
13202;SDS011;6666;51.626;7.530;2023-05-07T12:19:45;7.10;;;5.22;;
13202;SDS011;6666;51.626;7.530;2023-05-07T12:22:14;6.47;;;5.20;;
13202;SDS011;6666;51.626;7.530;2023-05-07T12:24:45;7.68;;;5.15;;
13202;SDS011;6666;51.626;7.530;2023-05-07T12:27:14;10.73;;;5.30;;
13202;SDS011;6666;51.626;7.530;2023-05-07T12:29:47;5.90;;;4.28;;
13202;SDS011;6666;51.626;7.530;2023-05-07T12:32:16;4.70;;;3.78;;
13202;SDS011;6666;51.626;7.530;2023-05-07T12:34:46;7.87;;;4.30;;
13202;SDS011;6666;51.626;7.530;2023-05-07T12:37:23;8.68;;;4.95;;
13202;SDS011;6666;51.626;7.530;2023-05-07T12:40:03;4.70;;;3.97;;
13202;SDS011;6666;51.626;7.530;2023-05-07T12:42:35;4.50;;;3.50;;
13202;SDS011;6666;51.626;7.530;2023-05-07T12:45:07;5.60;;;3.90;;
13202;SDS011;6666;51.626;7.530;2023-05-07T12:47:36;7.10;;;4.40;;
13202;SDS011;6666;51.626;7.530;2023-05-07T12:50:07;6.60;;;4.20;;
13202;SDS011;6666;51.626;7.530;2023-05-07T12:52:35;5.68;;;4.30;;
13202;SDS011;6666;51.626;7.530;2023-05-07T12:55:04;6.82;;;4.30;;
13202;SDS011;6666;51.626;7.530;2023-05-07T12:57:37;5.85;;;4.47;;
13202;SDS011;6666;51.626;7.530;2023-05-07T13:00:06;6.43;;;4.95;;
13202;SDS011;6666;51.626;7.530;2023-05-07T13:02:37;7.28;;;4.35;;
13202;SDS011;6666;51.626;7.530;2023-05-07T13:05:08;6.68;;;4.70;;
13202;SDS011;6666;51.626;7.530;2023-05-07T13:07:36;9.23;;;4.50;;
13202;SDS011;6666;51.626;7.530;2023-05-07T13:10:05;6.95;;;4.40;;
13202;SDS011;6666;51.626;7.530;2023-05-07T13:12:34;7.88;;;4.15;;
13202;SDS011;6666;51.626;7.530;2023-05-07T13:15:03;5.00;;;4.05;;
13202;SDS011;6666;51.626;7.530;2023-05-07T13:17:31;6.38;;;4.15;;
13202;SDS011;6666;51.626;7.530;2023-05-07T13:19:59;7.33;;;4.17;;
13202;SDS011;6666;51.626;7.530;2023-05-07T13:22:29;5.85;;;4.30;;
13202;SDS011;6666;51.626;7.530;2023-05-07T13:24:58;6.32;;;4.90;;
13202;SDS011;6666;51.626;7.530;2023-05-07T13:27:25;9.32;;;5.00;;
13202;SDS011;6666;51.626;7.530;2023-05-07T13:29:54;9.93;;;5.03;;
13202;SDS011;6666;51.626;7.530;2023-05-07T13:32:22;6.65;;;5.20;;
13202;SDS011;6666;51.626;7.530;2023-05-07T13:34:50;7.63;;;4.78;;
13202;SDS011;6666;51.626;7.530;2023-05-07T13:37:18;6.65;;;4.85;;
13202;SDS011;6666;51.626;7.530;2023-05-07T13:39:47;6.43;;;4.50;;
13202;SDS011;6666;51.626;7.530;2023-05-07T13:42:16;6.90;;;4.95;;
13202;SDS011;6666;51.626;7.530;2023-05-07T13:44:44;5.82;;;4.28;;
13202;SDS011;6666;51.626;7.530;2023-05-07T13:47:12;6.90;;;4.30;;
13202;SDS011;6666;51.626;7.530;2023-05-07T13:49:40;8.43;;;5.20;;
13202;SDS011;6666;51.626;7.530;2023-05-07T13:52:09;7.10;;;4.75;;
13202;SDS011;6666;51.626;7.530;2023-05-07T13:54:37;7.43;;;5.07;;
13202;SDS011;6666;51.626;7.530;2023-05-07T13:57:07;7.15;;;4.55;;
13202;SDS011;6666;51.626;7.530;2023-05-07T13:59:35;8.20;;;4.90;;
13202;SDS011;6666;51.626;7.530;2023-05-07T14:02:03;7.70;;;5.10;;
13202;SDS011;6666;51.626;7.530;2023-05-07T14:04:31;8.50;;;5.00;;
13202;SDS011;6666;51.626;7.530;2023-05-07T14:07:00;6.00;;;4.90;;
13202;SDS011;6666;51.626;7.530;2023-05-07T14:09:29;4.70;;;3.90;;
13202;SDS011;6666;51.626;7.530;2023-05-07T14:11:58;5.28;;;4.30;;
13202;SDS011;6666;51.626;7.530;2023-05-07T14:14:29;6.85;;;5.07;;
13202;SDS011;6666;51.626;7.530;2023-05-07T14:16:57;7.80;;;4.60;;
13202;SDS011;6666;51.626;7.530;2023-05-07T14:19:25;7.25;;;4.57;;
13202;SDS011;6666;51.626;7.530;2023-05-07T14:21:53;8.23;;;4.72;;
13202;SDS011;6666;51.626;7.530;2023-05-07T14:24:24;6.37;;;4.60;;
13202;SDS011;6666;51.626;7.530;2023-05-07T14:27:03;9.02;;;4.57;;
13202;SDS011;6666;51.626;7.530;2023-05-07T14:29:33;8.05;;;4.10;;
13202;SDS011;6666;51.626;7.530;2023-05-07T14:32:02;8.60;;;4.60;;
13202;SDS011;6666;51.626;7.530;2023-05-07T14:34:30;7.50;;;4.20;;
13202;SDS011;6666;51.626;7.530;2023-05-07T14:36:59;7.55;;;4.25;;
13202;SDS011;6666;51.626;7.530;2023-05-07T14:39:27;7.20;;;5.10;;
13202;SDS011;6666;51.626;7.530;2023-05-07T14:41:56;5.75;;;4.63;;
13202;SDS011;6666;51.626;7.530;2023-05-07T14:44:24;6.93;;;4.67;;
13202;SDS011;6666;51.626;7.530;2023-05-07T14:46:54;16.77;;;10.90;;
13202;SDS011;6666;51.626;7.530;2023-05-07T14:49:22;21.88;;;13.80;;
13202;SDS011;6666;51.626;7.530;2023-05-07T14:51:50;17.70;;;11.60;;
13202;SDS011;6666;51.626;7.530;2023-05-07T14:54:19;5.35;;;4.53;;
13202;SDS011;6666;51.626;7.530;2023-05-07T14:56:47;4.63;;;4.00;;
13202;SDS011;6666;51.626;7.530;2023-05-07T14:59:15;6.45;;;4.82;;
13202;SDS011;6666;51.626;7.530;2023-05-07T15:01:45;8.75;;;4.80;;
13202;SDS011;6666;51.626;7.530;2023-05-07T15:04:15;7.45;;;5.30;;
13202;SDS011;6666;51.626;7.530;2023-05-07T15:06:43;8.33;;;5.50;;
13202;SDS011;6666;51.626;7.530;2023-05-07T15:09:12;6.30;;;5.40;;
13202;SDS011;6666;51.626;7.530;2023-05-07T15:11:40;8.27;;;6.60;;
13202;SDS011;6666;51.626;7.530;2023-05-07T15:14:08;6.03;;;5.07;;
13202;SDS011;6666;51.626;7.530;2023-05-07T15:16:36;8.10;;;6.47;;
13202;SDS011;6666;51.626;7.530;2023-05-07T15:19:05;14.27;;;10.73;;
13202;SDS011;6666;51.626;7.530;2023-05-07T15:21:34;12.68;;;6.70;;
13202;SDS011;6666;51.626;7.530;2023-05-07T15:24:02;11.20;;;8.52;;